sensor_id;sensor_type;location;lat;lon;timestamp;P1;durP1;ratioP1;P2;durP2;ratioP2
16813;SDS011;8524;57.650;11.926;2024-01-10T00:00:14;7.90;;;7.10;;
16813;SDS011;8524;57.650;11.926;2024-01-10T00:02:41;8.30;;;7.53;;
16813;SDS011;8524;57.650;11.926;2024-01-10T00:05:08;8.93;;;7.70;;
16813;SDS011;8524;57.650;11.926;2024-01-10T00:07:35;8.40;;;7.50;;
16813;SDS011;8524;57.650;11.926;2024-01-10T00:10:04;8.20;;;6.90;;
16813;SDS011;8524;57.650;11.926;2024-01-10T00:12:31;8.48;;;7.78;;
16813;SDS011;8524;57.650;11.926;2024-01-10T00:15:01;7.53;;;6.70;;
16813;SDS011;8524;57.650;11.926;2024-01-10T00:17:28;9.83;;;8.57;;
16813;SDS011;8524;57.650;11.926;2024-01-10T00:19:55;9.80;;;8.90;;
16813;SDS011;8524;57.650;11.926;2024-01-10T00:22:22;8.33;;;7.53;;
16813;SDS011;8524;57.650;11.926;2024-01-10T00:24:49;9.30;;;8.40;;
16813;SDS011;8524;57.650;11.926;2024-01-10T00:27:17;9.73;;;8.67;;
16813;SDS011;8524;57.650;11.926;2024-01-10T00:29:44;9.10;;;8.30;;
16813;SDS011;8524;57.650;11.926;2024-01-10T00:32:11;9.80;;;8.37;;
16813;SDS011;8524;57.650;11.926;2024-01-10T00:34:37;9.20;;;8.27;;
16813;SDS011;8524;57.650;11.926;2024-01-10T00:37:04;9.10;;;8.13;;
16813;SDS011;8524;57.650;11.926;2024-01-10T00:39:31;8.83;;;7.83;;
16813;SDS011;8524;57.650;11.926;2024-01-10T00:41:58;10.43;;;9.13;;
16813;SDS011;8524;57.650;11.926;2024-01-10T00:44:26;8.80;;;7.90;;
16813;SDS011;8524;57.650;11.926;2024-01-10T00:46:53;12.60;;;11.40;;
16813;SDS011;8524;57.650;11.926;2024-01-10T00:49:20;10.47;;;9.07;;
16813;SDS011;8524;57.650;11.926;2024-01-10T00:51:47;9.57;;;8.60;;
16813;SDS011;8524;57.650;11.926;2024-01-10T00:54:13;9.40;;;8.40;;
16813;SDS011;8524;57.650;11.926;2024-01-10T00:56:40;9.60;;;8.63;;
16813;SDS011;8524;57.650;11.926;2024-01-10T00:59:07;10.68;;;9.63;;
16813;SDS011;8524;57.650;11.926;2024-01-10T01:01:35;11.03;;;9.83;;
16813;SDS011;8524;57.650;11.926;2024-01-10T01:04:02;9.40;;;8.47;;
16813;SDS011;8524;57.650;11.926;2024-01-10T01:06:29;8.73;;;7.83;;
16813;SDS011;8524;57.650;11.926;2024-01-10T01:08:56;9.27;;;8.23;;
16813;SDS011;8524;57.650;11.926;2024-01-10T01:11:23;8.07;;;7.38;;
16813;SDS011;8524;57.650;11.926;2024-01-10T01:13:50;7.75;;;7.05;;
16813;SDS011;8524;57.650;11.926;2024-01-10T01:16:17;7.65;;;7.05;;
16813;SDS011;8524;57.650;11.926;2024-01-10T01:18:45;6.60;;;5.90;;
16813;SDS011;8524;57.650;11.926;2024-01-10T01:21:12;6.70;;;6.10;;
16813;SDS011;8524;57.650;11.926;2024-01-10T01:23:39;6.57;;;5.97;;
16813;SDS011;8524;57.650;11.926;2024-01-10T01:26:06;7.05;;;6.45;;
16813;SDS011;8524;57.650;11.926;2024-01-10T01:28:32;6.20;;;5.60;;
16813;SDS011;8524;57.650;11.926;2024-01-10T01:31:00;7.00;;;6.40;;
16813;SDS011;8524;57.650;11.926;2024-01-10T01:33:26;6.10;;;5.50;;
16813;SDS011;8524;57.650;11.926;2024-01-10T01:35:55;6.63;;;6.03;;
16813;SDS011;8524;57.650;11.926;2024-01-10T01:38:22;6.13;;;5.57;;
16813;SDS011;8524;57.650;11.926;2024-01-10T01:40:48;5.87;;;5.17;;
16813;SDS011;8524;57.650;11.926;2024-01-10T01:43:19;6.50;;;5.90;;
16813;SDS011;8524;57.650;11.926;2024-01-10T01:45:47;7.73;;;6.90;;
16813;SDS011;8524;57.650;11.926;2024-01-10T01:48:17;8.80;;;8.00;;
16813;SDS011;8524;57.650;11.926;2024-01-10T01:50:44;8.40;;;7.70;;
16813;SDS011;8524;57.650;11.926;2024-01-10T01:53:13;9.02;;;8.23;;
16813;SDS011;8524;57.650;11.926;2024-01-10T01:55:41;7.72;;;6.93;;
16813;SDS011;8524;57.650;11.926;2024-01-10T01:58:09;7.77;;;7.07;;
16813;SDS011;8524;57.650;11.926;2024-01-10T02:00:36;8.40;;;7.57;;
16813;SDS011;8524;57.650;11.926;2024-01-10T02:03:04;7.87;;;7.07;;
16813;SDS011;8524;57.650;11.926;2024-01-10T02:05:31;10.03;;;9.13;;
16813;SDS011;8524;57.650;11.926;2024-01-10T02:07:58;10.67;;;9.57;;
16813;SDS011;8524;57.650;11.926;2024-01-10T02:10:26;11.57;;;10.48;;
16813;SDS011;8524;57.650;11.926;2024-01-10T02:12:53;9.10;;;8.20;;
16813;SDS011;8524;57.650;11.926;2024-01-10T02:15:20;9.43;;;8.13;;
16813;SDS011;8524;57.650;11.926;2024-01-10T02:17:47;7.70;;;6.95;;
16813;SDS011;8524;57.650;11.926;2024-01-10T02:20:15;8.40;;;7.47;;
16813;SDS011;8524;57.650;11.926;2024-01-10T02:22:42;10.00;;;9.00;;
16813;SDS011;8524;57.650;11.926;2024-01-10T02:25:11;8.47;;;7.57;;
16813;SDS011;8524;57.650;11.926;2024-01-10T02:27:39;8.68;;;7.88;;
16813;SDS011;8524;57.650;11.926;2024-01-10T02:30:07;9.45;;;8.52;;
16813;SDS011;8524;57.650;11.926;2024-01-10T02:32:36;10.23;;;9.13;;
16813;SDS011;8524;57.650;11.926;2024-01-10T02:35:03;10.48;;;9.48;;
16813;SDS011;8524;57.650;11.926;2024-01-10T02:37:30;9.90;;;8.80;;
16813;SDS011;8524;57.650;11.926;2024-01-10T02:39:57;9.77;;;8.88;;
16813;SDS011;8524;57.650;11.926;2024-01-10T02:42:25;9.82;;;8.88;;
16813;SDS011;8524;57.650;11.926;2024-01-10T02:44:53;9.47;;;8.47;;
16813;SDS011;8524;57.650;11.926;2024-01-10T02:47:20;10.23;;;9.32;;
16813;SDS011;8524;57.650;11.926;2024-01-10T02:49:47;9.38;;;8.52;;
16813;SDS011;8524;57.650;11.926;2024-01-10T02:52:14;8.73;;;7.90;;
16813;SDS011;8524;57.650;11.926;2024-01-10T02:54:40;12.43;;;11.23;;
16813;SDS011;8524;57.650;11.926;2024-01-10T02:57:07;10.85;;;9.85;;
16813;SDS011;8524;57.650;11.926;2024-01-10T02:59:35;9.85;;;8.85;;
16813;SDS011;8524;57.650;11.926;2024-01-10T03:02:02;12.00;;;10.00;;
16813;SDS011;8524;57.650;11.926;2024-01-10T03:04:29;12.93;;;11.63;;
16813;SDS011;8524;57.650;11.926;2024-01-10T03:06:56;11.50;;;10.30;;
16813;SDS011;8524;57.650;11.926;2024-01-10T03:09:23;11.23;;;9.23;;
16813;SDS011;8524;57.650;11.926;2024-01-10T03:11:50;9.83;;;8.77;;
16813;SDS011;8524;57.650;11.926;2024-01-10T03:14:17;9.77;;;8.77;;
16813;SDS011;8524;57.650;11.926;2024-01-10T03:16:45;9.70;;;8.70;;
16813;SDS011;8524;57.650;11.926;2024-01-10T03:19:12;8.10;;;7.30;;
16813;SDS011;8524;57.650;11.926;2024-01-10T03:21:39;8.57;;;7.47;;
16813;SDS011;8524;57.650;11.926;2024-01-10T03:24:06;7.90;;;7.10;;
16813;SDS011;8524;57.650;11.926;2024-01-10T03:26:33;8.93;;;7.13;;
16813;SDS011;8524;57.650;11.926;2024-01-10T03:29:00;7.40;;;6.70;;
16813;SDS011;8524;57.650;11.926;2024-01-10T03:31:27;7.80;;;6.80;;
16813;SDS011;8524;57.650;11.926;2024-01-10T03:33:56;7.93;;;7.13;;
16813;SDS011;8524;57.650;11.926;2024-01-10T03:36:24;7.82;;;6.88;;
16813;SDS011;8524;57.650;11.926;2024-01-10T03:38:51;9.32;;;7.50;;
16813;SDS011;8524;57.650;11.926;2024-01-10T03:41:18;9.60;;;7.07;;
16813;SDS011;8524;57.650;11.926;2024-01-10T03:43:46;9.32;;;6.72;;
16813;SDS011;8524;57.650;11.926;2024-01-10T03:46:13;9.40;;;6.40;;
16813;SDS011;8524;57.650;11.926;2024-01-10T03:48:40;8.27;;;6.50;;
16813;SDS011;8524;57.650;11.926;2024-01-10T03:51:14;7.78;;;6.00;;
16813;SDS011;8524;57.650;11.926;2024-01-10T03:53:41;7.97;;;6.03;;
16813;SDS011;8524;57.650;11.926;2024-01-10T03:56:08;7.93;;;6.05;;
16813;SDS011;8524;57.650;11.926;2024-01-10T03:58:35;6.75;;;5.63;;
16813;SDS011;8524;57.650;11.926;2024-01-10T04:01:04;7.55;;;6.00;;
16813;SDS011;8524;57.650;11.926;2024-01-10T04:03:31;6.00;;;4.97;;
16813;SDS011;8524;57.650;11.926;2024-01-10T04:05:59;6.40;;;5.50;;
16813;SDS011;8524;57.650;11.926;2024-01-10T04:08:28;7.57;;;5.82;;
16813;SDS011;8524;57.650;11.926;2024-01-10T04:10:55;6.80;;;6.10;;
16813;SDS011;8524;57.650;11.926;2024-01-10T04:13:22;6.20;;;5.33;;
16813;SDS011;8524;57.650;11.926;2024-01-10T04:15:49;7.07;;;5.40;;
16813;SDS011;8524;57.650;11.926;2024-01-10T04:18:16;6.40;;;5.03;;
16813;SDS011;8524;57.650;11.926;2024-01-10T04:20:43;7.03;;;4.67;;
16813;SDS011;8524;57.650;11.926;2024-01-10T04:23:10;8.00;;;6.70;;
16813;SDS011;8524;57.650;11.926;2024-01-10T04:25:38;8.27;;;6.95;;
16813;SDS011;8524;57.650;11.926;2024-01-10T04:28:05;8.40;;;6.95;;
16813;SDS011;8524;57.650;11.926;2024-01-10T04:30:32;7.78;;;6.50;;
16813;SDS011;8524;57.650;11.926;2024-01-10T04:32:59;8.07;;;6.80;;
16813;SDS011;8524;57.650;11.926;2024-01-10T04:35:26;8.53;;;6.23;;
16813;SDS011;8524;57.650;11.926;2024-01-10T04:37:54;8.30;;;7.13;;
16813;SDS011;8524;57.650;11.926;2024-01-10T04:40:21;8.60;;;7.37;;
16813;SDS011;8524;57.650;11.926;2024-01-10T04:42:49;9.30;;;7.50;;
16813;SDS011;8524;57.650;11.926;2024-01-10T04:45:16;11.60;;;8.13;;
16813;SDS011;8524;57.650;11.926;2024-01-10T04:47:45;10.90;;;7.05;;
16813;SDS011;8524;57.650;11.926;2024-01-10T04:50:12;10.13;;;6.80;;
16813;SDS011;8524;57.650;11.926;2024-01-10T04:52:38;8.23;;;6.80;;
16813;SDS011;8524;57.650;11.926;2024-01-10T04:55:06;8.43;;;6.80;;
16813;SDS011;8524;57.650;11.926;2024-01-10T04:57:33;7.53;;;6.72;;
16813;SDS011;8524;57.650;11.926;2024-01-10T05:00:01;10.30;;;7.35;;
16813;SDS011;8524;57.650;11.926;2024-01-10T05:02:29;10.45;;;7.40;;
16813;SDS011;8524;57.650;11.926;2024-01-10T05:04:57;10.75;;;7.10;;
16813;SDS011;8524;57.650;11.926;2024-01-10T05:07:24;19.37;;;7.37;;
16813;SDS011;8524;57.650;11.926;2024-01-10T05:09:51;9.27;;;6.03;;
16813;SDS011;8524;57.650;11.926;2024-01-10T05:12:18;10.25;;;7.55;;
16813;SDS011;8524;57.650;11.926;2024-01-10T05:14:45;6.70;;;5.97;;
16813;SDS011;8524;57.650;11.926;2024-01-10T05:17:13;12.55;;;9.48;;
16813;SDS011;8524;57.650;11.926;2024-01-10T05:19:40;12.52;;;8.60;;
16813;SDS011;8524;57.650;11.926;2024-01-10T05:22:07;14.77;;;9.23;;
16813;SDS011;8524;57.650;11.926;2024-01-10T05:24:34;13.45;;;8.57;;
16813;SDS011;8524;57.650;11.926;2024-01-10T05:27:01;11.50;;;7.60;;
16813;SDS011;8524;57.650;11.926;2024-01-10T05:29:28;14.50;;;9.18;;
16813;SDS011;8524;57.650;11.926;2024-01-10T05:31:55;15.93;;;10.65;;
16813;SDS011;8524;57.650;11.926;2024-01-10T05:34:23;14.10;;;9.85;;
16813;SDS011;8524;57.650;11.926;2024-01-10T05:36:50;13.52;;;9.80;;
16813;SDS011;8524;57.650;11.926;2024-01-10T05:39:16;15.52;;;10.32;;
16813;SDS011;8524;57.650;11.926;2024-01-10T05:41:45;14.88;;;10.18;;
16813;SDS011;8524;57.650;11.926;2024-01-10T05:44:12;17.35;;;10.63;;
16813;SDS011;8524;57.650;11.926;2024-01-10T05:46:39;19.77;;;13.23;;
16813;SDS011;8524;57.650;11.926;2024-01-10T05:49:08;25.13;;;15.03;;
16813;SDS011;8524;57.650;11.926;2024-01-10T05:51:37;23.65;;;16.48;;
16813;SDS011;8524;57.650;11.926;2024-01-10T05:54:03;21.83;;;15.23;;
16813;SDS011;8524;57.650;11.926;2024-01-10T05:56:32;21.25;;;13.95;;
16813;SDS011;8524;57.650;11.926;2024-01-10T05:58:59;30.73;;;12.50;;
16813;SDS011;8524;57.650;11.926;2024-01-10T06:01:26;9.07;;;5.60;;
16813;SDS011;8524;57.650;11.926;2024-01-10T06:03:53;23.50;;;14.47;;
16813;SDS011;8524;57.650;11.926;2024-01-10T06:06:21;18.27;;;12.10;;
16813;SDS011;8524;57.650;11.926;2024-01-10T06:08:49;18.50;;;11.20;;
16813;SDS011;8524;57.650;11.926;2024-01-10T06:11:17;20.03;;;11.70;;
16813;SDS011;8524;57.650;11.926;2024-01-10T06:13:44;15.48;;;11.00;;
16813;SDS011;8524;57.650;11.926;2024-01-10T06:16:11;17.83;;;11.15;;
16813;SDS011;8524;57.650;11.926;2024-01-10T06:18:38;10.80;;;8.20;;
16813;SDS011;8524;57.650;11.926;2024-01-10T06:21:05;12.30;;;7.33;;
16813;SDS011;8524;57.650;11.926;2024-01-10T06:23:32;16.02;;;8.30;;
16813;SDS011;8524;57.650;11.926;2024-01-10T06:26:01;28.25;;;10.35;;
16813;SDS011;8524;57.650;11.926;2024-01-10T06:28:28;10.83;;;7.23;;
16813;SDS011;8524;57.650;11.926;2024-01-10T06:30:55;10.25;;;8.05;;
16813;SDS011;8524;57.650;11.926;2024-01-10T06:33:22;9.73;;;7.77;;
16813;SDS011;8524;57.650;11.926;2024-01-10T06:35:49;11.47;;;7.83;;
16813;SDS011;8524;57.650;11.926;2024-01-10T06:38:16;9.17;;;6.60;;
16813;SDS011;8524;57.650;11.926;2024-01-10T06:40:45;16.67;;;11.10;;
16813;SDS011;8524;57.650;11.926;2024-01-10T06:43:14;17.05;;;10.65;;
16813;SDS011;8524;57.650;11.926;2024-01-10T06:45:41;13.60;;;8.53;;
16813;SDS011;8524;57.650;11.926;2024-01-10T06:48:08;14.40;;;8.97;;
16813;SDS011;8524;57.650;11.926;2024-01-10T06:50:35;11.68;;;8.85;;
16813;SDS011;8524;57.650;11.926;2024-01-10T06:53:03;16.60;;;10.87;;
16813;SDS011;8524;57.650;11.926;2024-01-10T06:55:30;24.00;;;12.00;;
16813;SDS011;8524;57.650;11.926;2024-01-10T06:57:57;23.90;;;12.00;;
16813;SDS011;8524;57.650;11.926;2024-01-10T07:00:25;24.35;;;13.90;;
16813;SDS011;8524;57.650;11.926;2024-01-10T07:02:52;22.35;;;13.65;;
16813;SDS011;8524;57.650;11.926;2024-01-10T07:05:19;24.23;;;13.40;;
16813;SDS011;8524;57.650;11.926;2024-01-10T07:07:46;28.77;;;13.97;;
16813;SDS011;8524;57.650;11.926;2024-01-10T07:10:14;20.98;;;12.93;;
16813;SDS011;8524;57.650;11.926;2024-01-10T07:12:41;22.48;;;14.32;;
16813;SDS011;8524;57.650;11.926;2024-01-10T07:15:08;18.25;;;12.68;;
16813;SDS011;8524;57.650;11.926;2024-01-10T07:17:37;17.75;;;11.15;;
16813;SDS011;8524;57.650;11.926;2024-01-10T07:20:05;13.30;;;9.57;;
16813;SDS011;8524;57.650;11.926;2024-01-10T07:22:33;12.85;;;10.20;;
16813;SDS011;8524;57.650;11.926;2024-01-10T07:25:01;13.70;;;10.90;;
16813;SDS011;8524;57.650;11.926;2024-01-10T07:27:28;15.15;;;11.43;;
16813;SDS011;8524;57.650;11.926;2024-01-10T07:29:55;15.40;;;10.27;;
16813;SDS011;8524;57.650;11.926;2024-01-10T07:32:22;15.77;;;10.80;;
16813;SDS011;8524;57.650;11.926;2024-01-10T07:34:50;17.00;;;13.50;;
16813;SDS011;8524;57.650;11.926;2024-01-10T07:37:17;17.67;;;13.57;;
16813;SDS011;8524;57.650;11.926;2024-01-10T07:39:45;17.58;;;12.38;;
16813;SDS011;8524;57.650;11.926;2024-01-10T07:42:12;15.73;;;10.77;;
16813;SDS011;8524;57.650;11.926;2024-01-10T07:44:39;17.95;;;12.85;;
16813;SDS011;8524;57.650;11.926;2024-01-10T07:47:06;24.08;;;15.05;;
16813;SDS011;8524;57.650;11.926;2024-01-10T07:49:33;15.13;;;10.95;;
16813;SDS011;8524;57.650;11.926;2024-01-10T07:52:02;19.23;;;12.17;;
16813;SDS011;8524;57.650;11.926;2024-01-10T07:54:30;19.73;;;14.10;;
16813;SDS011;8524;57.650;11.926;2024-01-10T07:56:57;17.42;;;12.07;;
16813;SDS011;8524;57.650;11.926;2024-01-10T07:59:24;17.07;;;11.27;;
16813;SDS011;8524;57.650;11.926;2024-01-10T08:01:54;17.08;;;13.65;;
16813;SDS011;8524;57.650;11.926;2024-01-10T08:04:23;16.98;;;11.70;;
16813;SDS011;8524;57.650;11.926;2024-01-10T08:06:50;14.60;;;10.97;;
16813;SDS011;8524;57.650;11.926;2024-01-10T08:09:19;16.77;;;12.40;;
16813;SDS011;8524;57.650;11.926;2024-01-10T08:11:46;15.50;;;11.33;;
16813;SDS011;8524;57.650;11.926;2024-01-10T08:14:13;17.65;;;13.13;;
16813;SDS011;8524;57.650;11.926;2024-01-10T08:16:41;15.93;;;11.30;;
16813;SDS011;8524;57.650;11.926;2024-01-10T08:19:09;13.17;;;9.77;;
16813;SDS011;8524;57.650;11.926;2024-01-10T08:21:37;20.60;;;11.50;;
16813;SDS011;8524;57.650;11.926;2024-01-10T08:24:04;16.98;;;12.70;;
16813;SDS011;8524;57.650;11.926;2024-01-10T08:26:33;14.53;;;9.53;;
16813;SDS011;8524;57.650;11.926;2024-01-10T08:29:00;17.77;;;10.93;;
16813;SDS011;8524;57.650;11.926;2024-01-10T08:31:27;19.52;;;12.45;;
16813;SDS011;8524;57.650;11.926;2024-01-10T08:33:54;14.43;;;9.33;;
16813;SDS011;8524;57.650;11.926;2024-01-10T08:36:21;12.93;;;8.50;;
16813;SDS011;8524;57.650;11.926;2024-01-10T08:38:49;19.60;;;11.10;;
16813;SDS011;8524;57.650;11.926;2024-01-10T08:41:16;13.47;;;9.57;;
16813;SDS011;8524;57.650;11.926;2024-01-10T08:43:44;15.83;;;10.00;;
16813;SDS011;8524;57.650;11.926;2024-01-10T08:46:11;14.00;;;8.80;;
16813;SDS011;8524;57.650;11.926;2024-01-10T08:48:38;13.53;;;8.80;;
16813;SDS011;8524;57.650;11.926;2024-01-10T08:51:04;13.38;;;9.90;;
16813;SDS011;8524;57.650;11.926;2024-01-10T08:53:31;15.53;;;10.40;;
16813;SDS011;8524;57.650;11.926;2024-01-10T08:55:58;16.77;;;9.67;;
16813;SDS011;8524;57.650;11.926;2024-01-10T08:58:25;12.90;;;9.10;;
16813;SDS011;8524;57.650;11.926;2024-01-10T09:00:53;10.43;;;7.90;;
16813;SDS011;8524;57.650;11.926;2024-01-10T09:03:20;11.00;;;7.87;;
16813;SDS011;8524;57.650;11.926;2024-01-10T09:05:48;11.03;;;7.87;;
16813;SDS011;8524;57.650;11.926;2024-01-10T09:08:15;9.77;;;7.50;;
16813;SDS011;8524;57.650;11.926;2024-01-10T09:10:42;11.27;;;8.20;;
16813;SDS011;8524;57.650;11.926;2024-01-10T09:13:09;10.77;;;7.97;;
16813;SDS011;8524;57.650;11.926;2024-01-10T09:15:36;10.20;;;7.83;;
16813;SDS011;8524;57.650;11.926;2024-01-10T09:18:04;9.70;;;7.33;;
16813;SDS011;8524;57.650;11.926;2024-01-10T09:20:31;13.37;;;9.23;;
16813;SDS011;8524;57.650;11.926;2024-01-10T09:22:58;11.80;;;8.30;;
16813;SDS011;8524;57.650;11.926;2024-01-10T09:25:26;11.43;;;7.80;;
16813;SDS011;8524;57.650;11.926;2024-01-10T09:27:53;12.67;;;8.93;;
16813;SDS011;8524;57.650;11.926;2024-01-10T09:30:19;13.43;;;9.50;;
16813;SDS011;8524;57.650;11.926;2024-01-10T09:32:46;11.13;;;8.47;;
16813;SDS011;8524;57.650;11.926;2024-01-10T09:35:15;14.53;;;9.30;;
16813;SDS011;8524;57.650;11.926;2024-01-10T09:37:43;15.17;;;10.40;;
16813;SDS011;8524;57.650;11.926;2024-01-10T09:40:11;16.97;;;10.87;;
16813;SDS011;8524;57.650;11.926;2024-01-10T09:42:40;11.90;;;9.37;;
16813;SDS011;8524;57.650;11.926;2024-01-10T09:45:08;15.03;;;10.03;;
16813;SDS011;8524;57.650;11.926;2024-01-10T09:47:37;13.80;;;9.53;;
16813;SDS011;8524;57.650;11.926;2024-01-10T09:50:08;10.83;;;8.13;;
16813;SDS011;8524;57.650;11.926;2024-01-10T09:52:39;11.80;;;8.10;;
16813;SDS011;8524;57.650;11.926;2024-01-10T09:55:08;12.57;;;10.95;;
16813;SDS011;8524;57.650;11.926;2024-01-10T09:57:37;11.73;;;9.00;;
16813;SDS011;8524;57.650;11.926;2024-01-10T10:00:06;15.17;;;10.53;;
16813;SDS011;8524;57.650;11.926;2024-01-10T10:02:37;15.13;;;10.27;;
16813;SDS011;8524;57.650;11.926;2024-01-10T10:05:07;10.07;;;7.90;;
16813;SDS011;8524;57.650;11.926;2024-01-10T10:07:44;11.10;;;8.73;;
16813;SDS011;8524;57.650;11.926;2024-01-10T10:10:11;18.20;;;11.63;;
16813;SDS011;8524;57.650;11.926;2024-01-10T10:12:43;17.00;;;11.83;;
16813;SDS011;8524;57.650;11.926;2024-01-10T10:15:11;17.00;;;12.27;;
16813;SDS011;8524;57.650;11.926;2024-01-10T10:17:39;21.42;;;14.52;;
16813;SDS011;8524;57.650;11.926;2024-01-10T10:20:12;18.57;;;13.67;;
16813;SDS011;8524;57.650;11.926;2024-01-10T10:22:40;20.60;;;14.20;;
16813;SDS011;8524;57.650;11.926;2024-01-10T10:25:24;17.67;;;13.40;;
16813;SDS011;8524;57.650;11.926;2024-01-10T10:27:52;19.13;;;12.67;;
16813;SDS011;8524;57.650;11.926;2024-01-10T10:30:19;17.93;;;12.13;;
16813;SDS011;8524;57.650;11.926;2024-01-10T10:32:47;21.20;;;13.80;;
16813;SDS011;8524;57.650;11.926;2024-01-10T10:35:14;17.57;;;12.03;;
16813;SDS011;8524;57.650;11.926;2024-01-10T10:37:41;18.80;;;13.60;;
16813;SDS011;8524;57.650;11.926;2024-01-10T10:40:10;18.87;;;13.20;;
16813;SDS011;8524;57.650;11.926;2024-01-10T10:42:38;18.07;;;12.50;;
16813;SDS011;8524;57.650;11.926;2024-01-10T10:45:10;19.10;;;15.20;;
16813;SDS011;8524;57.650;11.926;2024-01-10T10:47:42;26.50;;;16.93;;
16813;SDS011;8524;57.650;11.926;2024-01-10T10:50:12;20.20;;;14.63;;
16813;SDS011;8524;57.650;11.926;2024-01-10T10:52:41;18.63;;;13.37;;
16813;SDS011;8524;57.650;11.926;2024-01-10T10:55:14;19.40;;;12.97;;
16813;SDS011;8524;57.650;11.926;2024-01-10T10:57:43;20.93;;;12.60;;
16813;SDS011;8524;57.650;11.926;2024-01-10T11:00:12;15.97;;;11.10;;
16813;SDS011;8524;57.650;11.926;2024-01-10T11:02:41;19.53;;;12.93;;
16813;SDS011;8524;57.650;11.926;2024-01-10T11:05:09;19.77;;;12.80;;
16813;SDS011;8524;57.650;11.926;2024-01-10T11:07:36;18.70;;;12.20;;
16813;SDS011;8524;57.650;11.926;2024-01-10T11:10:05;16.98;;;12.65;;
16813;SDS011;8524;57.650;11.926;2024-01-10T11:12:47;16.17;;;11.40;;
16813;SDS011;8524;57.650;11.926;2024-01-10T11:15:34;13.77;;;10.10;;
16813;SDS011;8524;57.650;11.926;2024-01-10T11:21:12;16.43;;;11.30;;
16813;SDS011;8524;57.650;11.926;2024-01-10T11:23:49;15.10;;;10.83;;
16813;SDS011;8524;57.650;11.926;2024-01-10T11:26:19;13.57;;;9.50;;
16813;SDS011;8524;57.650;11.926;2024-01-10T11:28:47;17.80;;;10.00;;
16813;SDS011;8524;57.650;11.926;2024-01-10T11:31:15;12.60;;;9.07;;
16813;SDS011;8524;57.650;11.926;2024-01-10T11:33:42;12.17;;;9.57;;
16813;SDS011;8524;57.650;11.926;2024-01-10T11:36:11;14.13;;;10.03;;
16813;SDS011;8524;57.650;11.926;2024-01-10T11:38:49;11.77;;;8.57;;
16813;SDS011;8524;57.650;11.926;2024-01-10T11:41:21;13.47;;;10.07;;
16813;SDS011;8524;57.650;11.926;2024-01-10T11:46:53;9.30;;;8.13;;
16813;SDS011;8524;57.650;11.926;2024-01-10T11:49:21;11.87;;;8.43;;
16813;SDS011;8524;57.650;11.926;2024-01-10T11:51:49;11.37;;;8.97;;
16813;SDS011;8524;57.650;11.926;2024-01-10T11:54:37;9.77;;;7.73;;
16813;SDS011;8524;57.650;11.926;2024-01-10T11:57:13;9.77;;;7.70;;
16813;SDS011;8524;57.650;11.926;2024-01-10T11:59:43;7.50;;;6.70;;
16813;SDS011;8524;57.650;11.926;2024-01-10T12:02:11;8.93;;;7.77;;
16813;SDS011;8524;57.650;11.926;2024-01-10T12:04:38;8.73;;;7.20;;
16813;SDS011;8524;57.650;11.926;2024-01-10T12:07:06;9.77;;;7.57;;
16813;SDS011;8524;57.650;11.926;2024-01-10T12:09:33;11.23;;;9.00;;
16813;SDS011;8524;57.650;11.926;2024-01-10T12:12:04;7.80;;;6.90;;
16813;SDS011;8524;57.650;11.926;2024-01-10T12:14:33;9.53;;;8.10;;
16813;SDS011;8524;57.650;11.926;2024-01-10T12:17:03;8.30;;;6.73;;
16813;SDS011;8524;57.650;11.926;2024-01-10T12:19:33;8.90;;;8.00;;
16813;SDS011;8524;57.650;11.926;2024-01-10T12:22:00;9.83;;;7.30;;
16813;SDS011;8524;57.650;11.926;2024-01-10T12:24:27;10.27;;;7.73;;
16813;SDS011;8524;57.650;11.926;2024-01-10T12:26:55;8.88;;;8.05;;
16813;SDS011;8524;57.650;11.926;2024-01-10T12:29:22;9.00;;;6.90;;
16813;SDS011;8524;57.650;11.926;2024-01-10T12:31:50;7.33;;;6.60;;
16813;SDS011;8524;57.650;11.926;2024-01-10T12:34:18;9.20;;;7.20;;
16813;SDS011;8524;57.650;11.926;2024-01-10T12:36:46;7.53;;;6.33;;
16813;SDS011;8524;57.650;11.926;2024-01-10T12:39:14;6.63;;;5.43;;
16813;SDS011;8524;57.650;11.926;2024-01-10T12:41:42;8.20;;;6.07;;
16813;SDS011;8524;57.650;11.926;2024-01-10T12:44:10;8.63;;;7.03;;
16813;SDS011;8524;57.650;11.926;2024-01-10T12:46:37;6.87;;;5.70;;
16813;SDS011;8524;57.650;11.926;2024-01-10T12:49:16;8.27;;;6.30;;
16813;SDS011;8524;57.650;11.926;2024-01-10T12:51:46;7.53;;;6.20;;
16813;SDS011;8524;57.650;11.926;2024-01-10T12:54:13;8.60;;;7.68;;
16813;SDS011;8524;57.650;11.926;2024-01-10T12:56:42;9.30;;;7.30;;
16813;SDS011;8524;57.650;11.926;2024-01-10T12:59:09;9.63;;;7.30;;
16813;SDS011;8524;57.650;11.926;2024-01-10T13:01:36;8.97;;;7.13;;
16813;SDS011;8524;57.650;11.926;2024-01-10T13:04:03;7.47;;;5.83;;
16813;SDS011;8524;57.650;11.926;2024-01-10T13:06:32;8.80;;;6.30;;
16813;SDS011;8524;57.650;11.926;2024-01-10T13:08:59;11.43;;;7.13;;
16813;SDS011;8524;57.650;11.926;2024-01-10T13:11:26;7.43;;;5.77;;
16813;SDS011;8524;57.650;11.926;2024-01-10T13:13:54;11.57;;;7.73;;
16813;SDS011;8524;57.650;11.926;2024-01-10T13:16:21;6.93;;;5.30;;
16813;SDS011;8524;57.650;11.926;2024-01-10T13:18:49;6.93;;;5.20;;
16813;SDS011;8524;57.650;11.926;2024-01-10T13:21:18;6.75;;;6.05;;
16813;SDS011;8524;57.650;11.926;2024-01-10T13:23:47;5.50;;;4.80;;
16813;SDS011;8524;57.650;11.926;2024-01-10T13:26:14;6.47;;;4.80;;
16813;SDS011;8524;57.650;11.926;2024-01-10T13:28:41;11.93;;;6.70;;
16813;SDS011;8524;57.650;11.926;2024-01-10T13:31:08;8.83;;;6.33;;
16813;SDS011;8524;57.650;11.926;2024-01-10T13:33:35;7.07;;;5.83;;
16813;SDS011;8524;57.650;11.926;2024-01-10T13:36:03;7.00;;;5.83;;
16813;SDS011;8524;57.650;11.926;2024-01-10T13:38:30;7.53;;;6.00;;
16813;SDS011;8524;57.650;11.926;2024-01-10T13:40:59;7.03;;;5.87;;
16813;SDS011;8524;57.650;11.926;2024-01-10T13:43:26;9.07;;;6.80;;
16813;SDS011;8524;57.650;11.926;2024-01-10T13:45:54;9.05;;;7.45;;
16813;SDS011;8524;57.650;11.926;2024-01-10T13:48:21;7.33;;;6.13;;
16813;SDS011;8524;57.650;11.926;2024-01-10T13:50:48;7.40;;;5.90;;
16813;SDS011;8524;57.650;11.926;2024-01-10T13:53:15;8.03;;;6.17;;
16813;SDS011;8524;57.650;11.926;2024-01-10T13:55:42;7.17;;;6.10;;
16813;SDS011;8524;57.650;11.926;2024-01-10T13:58:10;8.53;;;6.33;;
16813;SDS011;8524;57.650;11.926;2024-01-10T14:00:38;7.20;;;5.90;;
16813;SDS011;8524;57.650;11.926;2024-01-10T14:03:05;6.70;;;5.70;;
16813;SDS011;8524;57.650;11.926;2024-01-10T14:05:32;6.90;;;6.13;;
16813;SDS011;8524;57.650;11.926;2024-01-10T14:08:00;7.90;;;6.17;;
16813;SDS011;8524;57.650;11.926;2024-01-10T14:10:27;9.60;;;6.13;;
16813;SDS011;8524;57.650;11.926;2024-01-10T14:12:54;7.93;;;6.37;;
16813;SDS011;8524;57.650;11.926;2024-01-10T14:15:23;6.97;;;5.57;;
16813;SDS011;8524;57.650;11.926;2024-01-10T14:17:50;7.43;;;5.73;;
16813;SDS011;8524;57.650;11.926;2024-01-10T14:20:17;8.20;;;6.07;;
16813;SDS011;8524;57.650;11.926;2024-01-10T14:22:43;7.20;;;6.27;;
16813;SDS011;8524;57.650;11.926;2024-01-10T14:25:10;7.77;;;6.10;;
16813;SDS011;8524;57.650;11.926;2024-01-10T14:27:38;7.60;;;5.90;;
16813;SDS011;8524;57.650;11.926;2024-01-10T14:30:06;8.80;;;6.30;;
16813;SDS011;8524;57.650;11.926;2024-01-10T14:32:38;7.17;;;5.53;;
16813;SDS011;8524;57.650;11.926;2024-01-10T14:35:05;7.33;;;6.43;;
16813;SDS011;8524;57.650;11.926;2024-01-10T14:37:34;8.50;;;6.60;;
16813;SDS011;8524;57.650;11.926;2024-01-10T14:40:01;7.43;;;6.70;;
16813;SDS011;8524;57.650;11.926;2024-01-10T14:42:29;8.57;;;7.57;;
16813;SDS011;8524;57.650;11.926;2024-01-10T14:44:57;8.37;;;6.17;;
16813;SDS011;8524;57.650;11.926;2024-01-10T14:47:25;8.30;;;6.53;;